sensor_id;sensor_type;location;lat;lon;timestamp;P1;durP1;ratioP1;P2;durP2;ratioP2
8480;SDS011;4277;51.354;6.740;2023-04-03T00:01:17;4.87;;;3.87;;
8480;SDS011;4277;51.354;6.740;2023-04-03T00:03:43;6.13;;;4.17;;
8480;SDS011;4277;51.354;6.740;2023-04-03T00:06:09;6.37;;;4.20;;
8480;SDS011;4277;51.354;6.740;2023-04-03T00:08:36;3.93;;;3.53;;
8480;SDS011;4277;51.354;6.740;2023-04-03T00:11:03;5.13;;;4.00;;
8480;SDS011;4277;51.354;6.740;2023-04-03T00:13:29;6.13;;;4.30;;
8480;SDS011;4277;51.354;6.740;2023-04-03T00:15:55;9.67;;;4.73;;
8480;SDS011;4277;51.354;6.740;2023-04-03T00:18:21;5.57;;;4.07;;
8480;SDS011;4277;51.354;6.740;2023-04-03T00:20:47;4.60;;;4.10;;
8480;SDS011;4277;51.354;6.740;2023-04-03T00:23:13;5.70;;;4.40;;
8480;SDS011;4277;51.354;6.740;2023-04-03T00:25:39;5.33;;;3.80;;
8480;SDS011;4277;51.354;6.740;2023-04-03T00:28:05;4.80;;;3.97;;
8480;SDS011;4277;51.354;6.740;2023-04-03T00:30:32;5.53;;;4.23;;
8480;SDS011;4277;51.354;6.740;2023-04-03T00:32:58;6.07;;;4.70;;
8480;SDS011;4277;51.354;6.740;2023-04-03T00:35:25;7.30;;;4.80;;
8480;SDS011;4277;51.354;6.740;2023-04-03T00:37:51;6.10;;;4.60;;
8480;SDS011;4277;51.354;6.740;2023-04-03T00:40:18;5.77;;;4.20;;
8480;SDS011;4277;51.354;6.740;2023-04-03T00:42:45;5.00;;;4.50;;
8480;SDS011;4277;51.354;6.740;2023-04-03T00:47:43;5.27;;;4.53;;
8480;SDS011;4277;51.354;6.740;2023-04-03T00:50:10;6.43;;;4.53;;
8480;SDS011;4277;51.354;6.740;2023-04-03T00:52:36;6.10;;;4.40;;
8480;SDS011;4277;51.354;6.740;2023-04-03T00:55:04;8.57;;;4.90;;
8480;SDS011;4277;51.354;6.740;2023-04-03T00:57:31;58.13;;;7.03;;
8480;SDS011;4277;51.354;6.740;2023-04-03T00:59:59;4.50;;;4.10;;
8480;SDS011;4277;51.354;6.740;2023-04-03T01:02:26;6.03;;;4.60;;
8480;SDS011;4277;51.354;6.740;2023-04-03T01:04:52;4.90;;;4.40;;
8480;SDS011;4277;51.354;6.740;2023-04-03T01:07:19;5.77;;;4.23;;
8480;SDS011;4277;51.354;6.740;2023-04-03T01:09:48;5.23;;;4.67;;
8480;SDS011;4277;51.354;6.740;2023-04-03T01:12:19;5.33;;;4.50;;
8480;SDS011;4277;51.354;6.740;2023-04-03T01:14:47;5.70;;;4.53;;
8480;SDS011;4277;51.354;6.740;2023-04-03T01:17:27;5.50;;;4.90;;
8480;SDS011;4277;51.354;6.740;2023-04-03T01:25:08;5.27;;;4.70;;
8480;SDS011;4277;51.354;6.740;2023-04-03T01:27:34;5.73;;;4.80;;
8480;SDS011;4277;51.354;6.740;2023-04-03T01:30:00;6.40;;;4.93;;
8480;SDS011;4277;51.354;6.740;2023-04-03T01:32:26;5.97;;;4.60;;
8480;SDS011;4277;51.354;6.740;2023-04-03T01:34:52;8.23;;;5.03;;
8480;SDS011;4277;51.354;6.740;2023-04-03T01:37:18;6.17;;;5.03;;
8480;SDS011;4277;51.354;6.740;2023-04-03T01:39:44;6.00;;;5.03;;
8480;SDS011;4277;51.354;6.740;2023-04-03T01:42:10;6.87;;;5.03;;
8480;SDS011;4277;51.354;6.740;2023-04-03T01:44:37;6.63;;;4.80;;
8480;SDS011;4277;51.354;6.740;2023-04-03T01:47:05;5.40;;;4.83;;
8480;SDS011;4277;51.354;6.740;2023-04-03T01:49:31;5.37;;;4.73;;
8480;SDS011;4277;51.354;6.740;2023-04-03T01:51:57;7.40;;;4.60;;
8480;SDS011;4277;51.354;6.740;2023-04-03T01:54:23;5.93;;;5.13;;
8480;SDS011;4277;51.354;6.740;2023-04-03T01:56:49;7.53;;;5.10;;
8480;SDS011;4277;51.354;6.740;2023-04-03T01:59:14;5.57;;;4.80;;
8480;SDS011;4277;51.354;6.740;2023-04-03T02:01:42;8.20;;;5.50;;
8480;SDS011;4277;51.354;6.740;2023-04-03T02:04:10;6.80;;;5.70;;
8480;SDS011;4277;51.354;6.740;2023-04-03T02:06:36;7.37;;;5.70;;
8480;SDS011;4277;51.354;6.740;2023-04-03T02:09:01;7.70;;;5.90;;
8480;SDS011;4277;51.354;6.740;2023-04-03T02:11:28;6.20;;;5.60;;
8480;SDS011;4277;51.354;6.740;2023-04-03T02:13:53;8.17;;;6.03;;
8480;SDS011;4277;51.354;6.740;2023-04-03T02:16:20;6.27;;;5.30;;
8480;SDS011;4277;51.354;6.740;2023-04-03T02:18:46;7.63;;;5.63;;
8480;SDS011;4277;51.354;6.740;2023-04-03T02:21:11;8.97;;;5.97;;
8480;SDS011;4277;51.354;6.740;2023-04-03T02:23:37;8.10;;;6.40;;
8480;SDS011;4277;51.354;6.740;2023-04-03T02:26:08;8.83;;;6.17;;
8480;SDS011;4277;51.354;6.740;2023-04-03T02:28:34;7.27;;;6.17;;
8480;SDS011;4277;51.354;6.740;2023-04-03T02:31:01;9.27;;;6.67;;
8480;SDS011;4277;51.354;6.740;2023-04-03T02:33:27;7.47;;;6.07;;
8480;SDS011;4277;51.354;6.740;2023-04-03T02:35:53;9.00;;;6.20;;
8480;SDS011;4277;51.354;6.740;2023-04-03T02:38:19;8.90;;;6.10;;
8480;SDS011;4277;51.354;6.740;2023-04-03T02:40:45;8.33;;;6.50;;
8480;SDS011;4277;51.354;6.740;2023-04-03T02:43:11;7.10;;;6.00;;
8480;SDS011;4277;51.354;6.740;2023-04-03T02:45:37;8.33;;;6.23;;
8480;SDS011;4277;51.354;6.740;2023-04-03T02:48:03;7.60;;;5.67;;
8480;SDS011;4277;51.354;6.740;2023-04-03T02:50:29;7.30;;;5.93;;
8480;SDS011;4277;51.354;6.740;2023-04-03T02:52:55;8.37;;;5.70;;
8480;SDS011;4277;51.354;6.740;2023-04-03T02:55:21;15.83;;;6.27;;
8480;SDS011;4277;51.354;6.740;2023-04-03T02:57:47;7.80;;;5.67;;
8480;SDS011;4277;51.354;6.740;2023-04-03T03:00:13;8.47;;;5.60;;
8480;SDS011;4277;51.354;6.740;2023-04-03T03:02:39;7.77;;;5.93;;
8480;SDS011;4277;51.354;6.740;2023-04-03T03:05:06;8.13;;;5.53;;
8480;SDS011;4277;51.354;6.740;2023-04-03T03:07:32;5.87;;;5.00;;
8480;SDS011;4277;51.354;6.740;2023-04-03T03:09:58;6.57;;;5.57;;
8480;SDS011;4277;51.354;6.740;2023-04-03T03:12:24;7.50;;;5.20;;
8480;SDS011;4277;51.354;6.740;2023-04-03T03:14:50;5.20;;;4.70;;
8480;SDS011;4277;51.354;6.740;2023-04-03T03:17:16;6.57;;;5.07;;
8480;SDS011;4277;51.354;6.740;2023-04-03T03:19:43;7.33;;;5.37;;
8480;SDS011;4277;51.354;6.740;2023-04-03T03:22:10;8.80;;;5.40;;
8480;SDS011;4277;51.354;6.740;2023-04-03T03:24:36;9.73;;;5.53;;
8480;SDS011;4277;51.354;6.740;2023-04-03T03:27:02;7.43;;;5.43;;
8480;SDS011;4277;51.354;6.740;2023-04-03T03:29:28;10.80;;;5.53;;
8480;SDS011;4277;51.354;6.740;2023-04-03T03:31:54;10.80;;;5.40;;
8480;SDS011;4277;51.354;6.740;2023-04-03T03:34:20;8.23;;;5.30;;
8480;SDS011;4277;51.354;6.740;2023-04-03T03:36:46;9.97;;;4.97;;
8480;SDS011;4277;51.354;6.740;2023-04-03T03:39:12;7.40;;;4.53;;
8480;SDS011;4277;51.354;6.740;2023-04-03T03:41:38;7.57;;;4.80;;
8480;SDS011;4277;51.354;6.740;2023-04-03T03:44:04;9.87;;;5.00;;
8480;SDS011;4277;51.354;6.740;2023-04-03T03:46:30;7.57;;;4.60;;
8480;SDS011;4277;51.354;6.740;2023-04-03T03:48:56;7.13;;;4.53;;
8480;SDS011;4277;51.354;6.740;2023-04-03T03:51:22;5.50;;;4.83;;
8480;SDS011;4277;51.354;6.740;2023-04-03T03:53:48;7.27;;;4.70;;
8480;SDS011;4277;51.354;6.740;2023-04-03T03:56:14;7.07;;;4.20;;
8480;SDS011;4277;51.354;6.740;2023-04-03T03:58:40;6.77;;;4.20;;
8480;SDS011;4277;51.354;6.740;2023-04-03T04:01:06;6.13;;;4.10;;
8480;SDS011;4277;51.354;6.740;2023-04-03T04:03:32;8.47;;;3.70;;
8480;SDS011;4277;51.354;6.740;2023-04-03T04:05:58;5.40;;;3.50;;
8480;SDS011;4277;51.354;6.740;2023-04-03T04:08:24;5.83;;;3.80;;
8480;SDS011;4277;51.354;6.740;2023-04-03T04:10:50;6.33;;;3.57;;
8480;SDS011;4277;51.354;6.740;2023-04-03T04:13:16;4.90;;;3.90;;
8480;SDS011;4277;51.354;6.740;2023-04-03T04:15:43;5.93;;;3.80;;
8480;SDS011;4277;51.354;6.740;2023-04-03T04:18:08;4.93;;;3.50;;
8480;SDS011;4277;51.354;6.740;2023-04-03T04:20:35;6.67;;;3.70;;
8480;SDS011;4277;51.354;6.740;2023-04-03T04:23:01;6.00;;;3.47;;
8480;SDS011;4277;51.354;6.740;2023-04-03T04:25:27;3.53;;;3.20;;
8480;SDS011;4277;51.354;6.740;2023-04-03T04:27:52;8.67;;;3.60;;
8480;SDS011;4277;51.354;6.740;2023-04-03T04:30:18;6.27;;;3.07;;
8480;SDS011;4277;51.354;6.740;2023-04-03T04:32:44;5.07;;;3.13;;
8480;SDS011;4277;51.354;6.740;2023-04-03T04:35:10;5.47;;;3.30;;
8480;SDS011;4277;51.354;6.740;2023-04-03T04:37:36;6.60;;;3.13;;
8480;SDS011;4277;51.354;6.740;2023-04-03T04:40:02;6.40;;;3.00;;
8480;SDS011;4277;51.354;6.740;2023-04-03T04:42:28;5.83;;;3.00;;
8480;SDS011;4277;51.354;6.740;2023-04-03T04:44:54;5.80;;;2.90;;
8480;SDS011;4277;51.354;6.740;2023-04-03T04:47:20;4.67;;;2.80;;
8480;SDS011;4277;51.354;6.740;2023-04-03T04:49:46;5.60;;;3.30;;
8480;SDS011;4277;51.354;6.740;2023-04-03T04:52:12;5.20;;;2.60;;
8480;SDS011;4277;51.354;6.740;2023-04-03T04:54:38;5.13;;;2.60;;
8480;SDS011;4277;51.354;6.740;2023-04-03T04:57:04;4.70;;;2.60;;
8480;SDS011;4277;51.354;6.740;2023-04-03T04:59:30;5.03;;;2.70;;
8480;SDS011;4277;51.354;6.740;2023-04-03T05:01:56;4.27;;;2.63;;
8480;SDS011;4277;51.354;6.740;2023-04-03T05:04:22;4.17;;;2.50;;
8480;SDS011;4277;51.354;6.740;2023-04-03T05:06:48;6.37;;;2.97;;
8480;SDS011;4277;51.354;6.740;2023-04-03T05:09:14;5.83;;;2.77;;
8480;SDS011;4277;51.354;6.740;2023-04-03T05:11:40;3.93;;;2.67;;
8480;SDS011;4277;51.354;6.740;2023-04-03T05:14:07;6.30;;;3.00;;
8480;SDS011;4277;51.354;6.740;2023-04-03T05:16:33;5.70;;;2.73;;
8480;SDS011;4277;51.354;6.740;2023-04-03T05:18:59;4.00;;;2.60;;
8480;SDS011;4277;51.354;6.740;2023-04-03T05:21:25;5.20;;;2.17;;
8480;SDS011;4277;51.354;6.740;2023-04-03T05:23:54;6.77;;;2.50;;
8480;SDS011;4277;51.354;6.740;2023-04-03T05:26:20;3.97;;;2.43;;
8480;SDS011;4277;51.354;6.740;2023-04-03T05:28:46;6.63;;;2.50;;
8480;SDS011;4277;51.354;6.740;2023-04-03T05:31:12;3.37;;;2.40;;
8480;SDS011;4277;51.354;6.740;2023-04-03T05:33:38;6.50;;;2.60;;
8480;SDS011;4277;51.354;6.740;2023-04-03T05:36:04;5.97;;;2.10;;
8480;SDS011;4277;51.354;6.740;2023-04-03T05:38:31;6.13;;;2.20;;
8480;SDS011;4277;51.354;6.740;2023-04-03T05:40:57;5.80;;;2.20;;
8480;SDS011;4277;51.354;6.740;2023-04-03T05:43:23;3.13;;;2.00;;
8480;SDS011;4277;51.354;6.740;2023-04-03T05:45:49;4.03;;;2.23;;
8480;SDS011;4277;51.354;6.740;2023-04-03T05:48:15;4.50;;;1.80;;
8480;SDS011;4277;51.354;6.740;2023-04-03T05:50:41;3.37;;;2.20;;
8480;SDS011;4277;51.354;6.740;2023-04-03T05:53:07;3.90;;;2.10;;
8480;SDS011;4277;51.354;6.740;2023-04-03T05:55:36;5.10;;;2.30;;
8480;SDS011;4277;51.354;6.740;2023-04-03T05:58:02;4.60;;;2.27;;
8480;SDS011;4277;51.354;6.740;2023-04-03T06:00:28;5.17;;;2.27;;
8480;SDS011;4277;51.354;6.740;2023-04-03T06:02:54;3.97;;;2.00;;
8480;SDS011;4277;51.354;6.740;2023-04-03T06:05:20;6.67;;;2.50;;
8480;SDS011;4277;51.354;6.740;2023-04-03T06:07:47;3.23;;;2.30;;
8480;SDS011;4277;51.354;6.740;2023-04-03T06:10:14;6.63;;;2.60;;
8480;SDS011;4277;51.354;6.740;2023-04-03T06:12:40;6.57;;;2.37;;
8480;SDS011;4277;51.354;6.740;2023-04-03T06:15:06;4.03;;;2.57;;
8480;SDS011;4277;51.354;6.740;2023-04-03T06:17:34;4.27;;;2.30;;
8480;SDS011;4277;51.354;6.740;2023-04-03T06:20:01;5.23;;;2.10;;
8480;SDS011;4277;51.354;6.740;2023-04-03T06:22:27;4.60;;;2.40;;
8480;SDS011;4277;51.354;6.740;2023-04-03T06:24:54;6.07;;;2.30;;
8480;SDS011;4277;51.354;6.740;2023-04-03T06:27:20;4.40;;;2.53;;
8480;SDS011;4277;51.354;6.740;2023-04-03T06:29:46;3.40;;;2.13;;
8480;SDS011;4277;51.354;6.740;2023-04-03T06:32:13;6.43;;;2.27;;
8480;SDS011;4277;51.354;6.740;2023-04-03T06:34:39;4.40;;;2.10;;
8480;SDS011;4277;51.354;6.740;2023-04-03T06:37:06;6.47;;;2.60;;
8480;SDS011;4277;51.354;6.740;2023-04-03T06:39:32;5.50;;;2.27;;
8480;SDS011;4277;51.354;6.740;2023-04-03T06:41:58;7.47;;;2.70;;
8480;SDS011;4277;51.354;6.740;2023-04-03T06:44:24;5.40;;;2.20;;
8480;SDS011;4277;51.354;6.740;2023-04-03T06:46:50;3.53;;;2.17;;
8480;SDS011;4277;51.354;6.740;2023-04-03T06:49:17;5.27;;;2.50;;
8480;SDS011;4277;51.354;6.740;2023-04-03T06:51:43;8.07;;;2.67;;
8480;SDS011;4277;51.354;6.740;2023-04-03T06:54:09;5.87;;;2.30;;
8480;SDS011;4277;51.354;6.740;2023-04-03T06:56:35;5.90;;;2.60;;
8480;SDS011;4277;51.354;6.740;2023-04-03T06:59:01;6.67;;;2.40;;
8480;SDS011;4277;51.354;6.740;2023-04-03T07:01:28;5.17;;;2.20;;
8480;SDS011;4277;51.354;6.740;2023-04-03T07:03:55;5.77;;;2.50;;
8480;SDS011;4277;51.354;6.740;2023-04-03T07:06:21;5.23;;;1.87;;
8480;SDS011;4277;51.354;6.740;2023-04-03T07:08:47;4.67;;;2.27;;
8480;SDS011;4277;51.354;6.740;2023-04-03T07:11:14;6.10;;;2.40;;
8480;SDS011;4277;51.354;6.740;2023-04-03T07:13:40;6.97;;;2.20;;
8480;SDS011;4277;51.354;6.740;2023-04-03T07:16:06;5.03;;;2.30;;
8480;SDS011;4277;51.354;6.740;2023-04-03T07:18:33;8.03;;;2.60;;
8480;SDS011;4277;51.354;6.740;2023-04-03T07:20:59;7.27;;;2.43;;
8480;SDS011;4277;51.354;6.740;2023-04-03T07:23:25;4.90;;;2.60;;
8480;SDS011;4277;51.354;6.740;2023-04-03T07:25:51;4.53;;;2.03;;
8480;SDS011;4277;51.354;6.740;2023-04-03T07:28:18;6.40;;;2.30;;
8480;SDS011;4277;51.354;6.740;2023-04-03T07:30:45;4.33;;;2.50;;
8480;SDS011;4277;51.354;6.740;2023-04-03T07:33:12;4.43;;;2.17;;
8480;SDS011;4277;51.354;6.740;2023-04-03T07:35:38;5.00;;;2.27;;
8480;SDS011;4277;51.354;6.740;2023-04-03T07:38:04;5.50;;;2.13;;
8480;SDS011;4277;51.354;6.740;2023-04-03T07:40:31;8.33;;;2.10;;
8480;SDS011;4277;51.354;6.740;2023-04-03T07:42:57;4.90;;;2.10;;
8480;SDS011;4277;51.354;6.740;2023-04-03T07:45:23;5.80;;;2.00;;
8480;SDS011;4277;51.354;6.740;2023-04-03T07:47:49;5.00;;;1.80;;
8480;SDS011;4277;51.354;6.740;2023-04-03T07:50:15;6.37;;;2.07;;
8480;SDS011;4277;51.354;6.740;2023-04-03T07:52:41;4.17;;;2.10;;
8480;SDS011;4277;51.354;6.740;2023-04-03T07:55:07;5.00;;;1.97;;
8480;SDS011;4277;51.354;6.740;2023-04-03T07:57:33;5.17;;;2.10;;
8480;SDS011;4277;51.354;6.740;2023-04-03T08:00:00;5.90;;;1.83;;
8480;SDS011;4277;51.354;6.740;2023-04-03T08:02:26;5.13;;;1.63;;
8480;SDS011;4277;51.354;6.740;2023-04-03T08:04:52;5.47;;;1.77;;
8480;SDS011;4277;51.354;6.740;2023-04-03T08:07:18;5.20;;;2.07;;
8480;SDS011;4277;51.354;6.740;2023-04-03T08:09:44;3.97;;;1.60;;
8480;SDS011;4277;51.354;6.740;2023-04-03T08:12:10;4.63;;;1.70;;
8480;SDS011;4277;51.354;6.740;2023-04-03T08:14:36;3.83;;;1.73;;
8480;SDS011;4277;51.354;6.740;2023-04-03T08:17:02;3.13;;;1.53;;
8480;SDS011;4277;51.354;6.740;2023-04-03T08:19:30;5.80;;;2.00;;
8480;SDS011;4277;51.354;6.740;2023-04-03T08:21:56;3.20;;;1.70;;
8480;SDS011;4277;51.354;6.740;2023-04-03T08:24:23;4.37;;;1.70;;
8480;SDS011;4277;51.354;6.740;2023-04-03T08:26:49;2.90;;;1.30;;
8480;SDS011;4277;51.354;6.740;2023-04-03T08:29:15;2.90;;;1.97;;
8480;SDS011;4277;51.354;6.740;2023-04-03T08:31:41;4.63;;;1.60;;
8480;SDS011;4277;51.354;6.740;2023-04-03T08:34:07;3.27;;;1.80;;
8480;SDS011;4277;51.354;6.740;2023-04-03T08:36:34;4.20;;;1.50;;
8480;SDS011;4277;51.354;6.740;2023-04-03T08:39:00;3.70;;;1.67;;
8480;SDS011;4277;51.354;6.740;2023-04-03T08:41:29;3.03;;;1.60;;
8480;SDS011;4277;51.354;6.740;2023-04-03T08:46:26;1.73;;;1.03;;
8480;SDS011;4277;51.354;6.740;2023-04-03T08:48:58;3.63;;;1.50;;
8480;SDS011;4277;51.354;6.740;2023-04-03T08:51:25;2.57;;;1.10;;
8480;SDS011;4277;51.354;6.740;2023-04-03T08:53:56;2.47;;;1.33;;
8480;SDS011;4277;51.354;6.740;2023-04-03T08:56:25;3.40;;;1.50;;
8480;SDS011;4277;51.354;6.740;2023-04-03T08:58:59;3.90;;;1.50;;
8480;SDS011;4277;51.354;6.740;2023-04-03T09:01:27;3.53;;;1.30;;
8480;SDS011;4277;51.354;6.740;2023-04-03T09:03:54;3.03;;;1.33;;
8480;SDS011;4277;51.354;6.740;2023-04-03T09:06:24;2.20;;;1.30;;
8480;SDS011;4277;51.354;6.740;2023-04-03T09:11:27;1.67;;;1.27;;
8480;SDS011;4277;51.354;6.740;2023-04-03T09:14:02;3.50;;;1.13;;
8480;SDS011;4277;51.354;6.740;2023-04-03T09:19:08;1.47;;;0.90;;
8480;SDS011;4277;51.354;6.740;2023-04-03T09:21:41;3.20;;;0.97;;
8480;SDS011;4277;51.354;6.740;2023-04-03T09:24:07;2.13;;;1.00;;
8480;SDS011;4277;51.354;6.740;2023-04-03T09:29:02;2.07;;;1.20;;
8480;SDS011;4277;51.354;6.740;2023-04-03T09:31:40;5.23;;;1.00;;
8480;SDS011;4277;51.354;6.740;2023-04-03T09:36:47;4.78;;;1.20;;
8480;SDS011;4277;51.354;6.740;2023-04-03T09:39:15;4.47;;;1.17;;
8480;SDS011;4277;51.354;6.740;2023-04-03T09:41:42;2.70;;;1.00;;
8480;SDS011;4277;51.354;6.740;2023-04-03T09:44:24;2.20;;;0.67;;
8480;SDS011;4277;51.354;6.740;2023-04-03T09:46:50;3.67;;;1.00;;
8480;SDS011;4277;51.354;6.740;2023-04-03T09:49:17;2.70;;;0.97;;
8480;SDS011;4277;51.354;6.740;2023-04-03T09:51:43;5.17;;;1.00;;
8480;SDS011;4277;51.354;6.740;2023-04-03T09:56:54;2.53;;;1.00;;
8480;SDS011;4277;51.354;6.740;2023-04-03T09:59:21;1.30;;;0.90;;
8480;SDS011;4277;51.354;6.740;2023-04-03T10:02:00;1.30;;;0.90;;
8480;SDS011;4277;51.354;6.740;2023-04-03T10:04:36;2.87;;;0.70;;
8480;SDS011;4277;51.354;6.740;2023-04-03T10:07:02;1.70;;;0.70;;
8480;SDS011;4277;51.354;6.740;2023-04-03T10:09:29;2.53;;;0.93;;
8480;SDS011;4277;51.354;6.740;2023-04-03T10:12:03;1.37;;;0.90;;
8480;SDS011;4277;51.354;6.740;2023-04-03T10:14:30;1.47;;;0.97;;
8480;SDS011;4277;51.354;6.740;2023-04-03T10:17:03;1.03;;;0.70;;
8480;SDS011;4277;51.354;6.740;2023-04-03T10:19:47;3.50;;;0.83;;
8480;SDS011;4277;51.354;6.740;2023-04-03T10:25:10;1.23;;;0.80;;
8480;SDS011;4277;51.354;6.740;2023-04-03T10:30:58;2.63;;;1.10;;
8480;SDS011;4277;51.354;6.740;2023-04-03T10:41:54;3.37;;;1.00;;
8480;SDS011;4277;51.354;6.740;2023-04-03T10:44:42;4.57;;;1.03;;
8480;SDS011;4277;51.354;6.740;2023-04-03T10:47:18;3.77;;;1.10;;
8480;SDS011;4277;51.354;6.740;2023-04-03T10:52:27;2.37;;;1.33;;
8480;SDS011;4277;51.354;6.740;2023-04-03T10:55:09;1.93;;;1.00;;
8480;SDS011;4277;51.354;6.740;2023-04-03T10:57:39;1.87;;;1.03;;
8480;SDS011;4277;51.354;6.740;2023-04-03T11:00:07;1.67;;;1.07;;
8480;SDS011;4277;51.354;6.740;2023-04-03T11:02:41;2.13;;;1.10;;
8480;SDS011;4277;51.354;6.740;2023-04-03T11:05:15;2.07;;;1.03;;
8480;SDS011;4277;51.354;6.740;2023-04-03T11:07:45;1.57;;;0.90;;
8480;SDS011;4277;51.354;6.740;2023-04-03T11:10:13;2.00;;;1.07;;
8480;SDS011;4277;51.354;6.740;2023-04-03T11:15:11;2.83;;;1.00;;
8480;SDS011;4277;51.354;6.740;2023-04-03T11:17:39;1.10;;;0.90;;
8480;SDS011;4277;51.354;6.740;2023-04-03T11:22:36;2.40;;;1.00;;
8480;SDS011;4277;51.354;6.740;2023-04-03T11:27:44;2.67;;;1.10;;
8480;SDS011;4277;51.354;6.740;2023-04-03T11:30:14;2.83;;;1.13;;
8480;SDS011;4277;51.354;6.740;2023-04-03T11:32:48;5.97;;;1.20;;
8480;SDS011;4277;51.354;6.740;2023-04-03T11:35:17;2.83;;;1.13;;
8480;SDS011;4277;51.354;6.740;2023-04-03T11:37:46;2.23;;;1.20;;
8480;SDS011;4277;51.354;6.740;2023-04-03T11:42:48;2.73;;;1.30;;
8480;SDS011;4277;51.354;6.740;2023-04-03T11:47:53;2.70;;;1.13;;
8480;SDS011;4277;51.354;6.740;2023-04-03T11:53:02;2.17;;;1.17;;
8480;SDS011;4277;51.354;6.740;2023-04-03T12:05:53;1.60;;;1.20;;
8480;SDS011;4277;51.354;6.740;2023-04-03T12:13:40;3.07;;;1.33;;
8480;SDS011;4277;51.354;6.740;2023-04-03T12:16:07;2.17;;;1.20;;
8480;SDS011;4277;51.354;6.740;2023-04-03T12:18:41;2.67;;;1.30;;
8480;SDS011;4277;51.354;6.740;2023-04-03T12:21:08;1.90;;;1.30;;
8480;SDS011;4277;51.354;6.740;2023-04-03T12:23:35;2.23;;;1.20;;
8480;SDS011;4277;51.354;6.740;2023-04-03T12:26:05;7.60;;;1.50;;
8480;SDS011;4277;51.354;6.740;2023-04-03T12:28:36;3.27;;;1.17;;
8480;SDS011;4277;51.354;6.740;2023-04-03T12:31:03;4.87;;;1.33;;
8480;SDS011;4277;51.354;6.740;2023-04-03T12:33:36;1.93;;;1.27;;
8480;SDS011;4277;51.354;6.740;2023-04-03T12:36:09;2.83;;;1.30;;
8480;SDS011;4277;51.354;6.740;2023-04-03T12:46:21;1.63;;;0.90;;
8480;SDS011;4277;51.354;6.740;2023-04-03T12:48:48;2.27;;;1.00;;
8480;SDS011;4277;51.354;6.740;2023-04-03T12:51:20;1.73;;;1.20;;
8480;SDS011;4277;51.354;6.740;2023-04-03T12:53:47;1.90;;;1.10;;
8480;SDS011;4277;51.354;6.740;2023-04-03T12:56:18;1.43;;;0.90;;
8480;SDS011;4277;51.354;6.740;2023-04-03T12:58:44;1.53;;;1.07;;
8480;SDS011;4277;51.354;6.740;2023-04-03T13:01:11;3.30;;;1.20;;
8480;SDS011;4277;51.354;6.740;2023-04-03T13:03:39;3.57;;;1.27;;
8480;SDS011;4277;51.354;6.740;2023-04-03T13:06:05;1.13;;;0.97;;
8480;SDS011;4277;51.354;6.740;2023-04-03T13:08:31;1.60;;;0.80;;
8480;SDS011;4277;51.354;6.740;2023-04-03T13:10:59;1.73;;;1.17;;
8480;SDS011;4277;51.354;6.740;2023-04-03T13:13:26;1.07;;;0.90;;
8480;SDS011;4277;51.354;6.740;2023-04-03T13:15:52;1.53;;;1.03;;
8480;SDS011;4277;51.354;6.740;2023-04-03T13:18:33;3.30;;;1.17;;
8480;SDS011;4277;51.354;6.740;2023-04-03T13:21:22;1.77;;;1.10;;
8480;SDS011;4277;51.354;6.740;2023-04-03T13:23:47;2.60;;;1.30;;
8480;SDS011;4277;51.354;6.740;2023-04-03T13:26:17;4.37;;;1.30;;
8480;SDS011;4277;51.354;6.740;2023-04-03T13:28:45;3.97;;;1.37;;
8480;SDS011;4277;51.354;6.740;2023-04-03T13:31:33;2.73;;;1.30;;
8480;SDS011;4277;51.354;6.740;2023-04-03T13:33:59;5.00;;;1.10;;
8480;SDS011;4277;51.354;6.740;2023-04-03T13:36:31;3.33;;;1.00;;
8480;SDS011;4277;51.354;6.740;2023-04-03T13:38:59;3.67;;;1.20;;
8480;SDS011;4277;51.354;6.740;2023-04-03T13:43:54;2.97;;;1.20;;
8480;SDS011;4277;51.354;6.740;2023-04-03T13:46:22;1.53;;;0.90;;
8480;SDS011;4277;51.354;6.740;2023-04-03T13:48:49;2.07;;;1.17;;
8480;SDS011;4277;51.354;6.740;2023-04-03T13:51:17;2.07;;;1.20;;
8480;SDS011;4277;51.354;6.740;2023-04-03T13:53:55;3.80;;;1.10;;
8480;SDS011;4277;51.354;6.740;2023-04-03T13:56:35;3.27;;;1.10;;
8480;SDS011;4277;51.354;6.740;2023-04-03T14:01:48;4.27;;;1.13;;
8480;SDS011;4277;51.354;6.740;2023-04-03T14:04:17;4.80;;;1.10;;
8480;SDS011;4277;51.354;6.740;2023-04-03T14:06:44;2.57;;;1.00;;
8480;SDS011;4277;51.354;6.740;2023-04-03T14:09:10;2.37;;;1.00;;
8480;SDS011;4277;51.354;6.740;2023-04-03T14:11:36;5.33;;;1.20;;
8480;SDS011;4277;51.354;6.740;2023-04-03T14:14:05;1.40;;;1.17;;
8480;SDS011;4277;51.354;6.740;2023-04-03T14:16:32;2.50;;;1.30;;
8480;SDS011;4277;51.354;6.740;2023-04-03T14:18:59;1.30;;;0.97;;
8480;SDS011;4277;51.354;6.740;2023-04-03T14:21:25;2.73;;;1.10;;
8480;SDS011;4277;51.354;6.740;2023-04-03T14:23:51;2.60;;;1.23;;
8480;SDS011;4277;51.354;6.740;2023-04-03T14:26:18;2.20;;;1.13;;
8480;SDS011;4277;51.354;6.740;2023-04-03T14:28:46;1.97;;;1.00;;
8480;SDS011;4277;51.354;6.740;2023-04-03T14:31:12;2.67;;;0.90;;
8480;SDS011;4277;51.354;6.740;2023-04-03T14:33:38;1.23;;;1.03;;
8480;SDS011;4277;51.354;6.740;2023-04-03T14:36:14;4.30;;;1.10;;
8480;SDS011;4277;51.354;6.740;2023-04-03T14:38:41;4.40;;;1.00;;
8480;SDS011;4277;51.354;6.740;2023-04-03T14:41:07;4.40;;;1.20;;
8480;SDS011;4277;51.354;6.740;2023-04-03T14:43:33;3.30;;;1.30;;
8480;SDS011;4277;51.354;6.740;2023-04-03T14:45:59;2.50;;;1.00;;
8480;SDS011;4277;51.354;6.740;2023-04-03T14:48:27;3.00;;;1.10;;
8480;SDS011;4277;51.354;6.740;2023-04-03T14:50:53;1.57;;;0.90;;
8480;SDS011;4277;51.354;6.740;2023-04-03T14:53:19;3.20;;;1.27;;
8480;SDS011;4277;51.354;6.740;2023-04-03T14:55:49;1.77;;;1.00;;
8480;SDS011;4277;51.354;6.740;2023-04-03T14:58:16;2.27;;;1.20;;
8480;SDS011;4277;51.354;6.740;2023-04-03T15:00:43;3.63;;;1.10;;
8480;SDS011;4277;51.354;6.740;2023-04-03T15:03:12;2.27;;;1.10;;
8480;SDS011;4277;51.354;6.740;2023-04-03T15:05:38;3.20;;;1.30;;
8480;SDS011;4277;51.354;6.740;2023-04-03T15:08:04;2.60;;;0.90;;
8480;SDS011;4277;51.354;6.740;2023-04-03T15:10:30;4.73;;;2.93;;
8480;SDS011;4277;51.354;6.740;2023-04-03T15:12:57;2.23;;;1.30;;
8480;SDS011;4277;51.354;6.740;2023-04-03T15:15:24;1.87;;;1.00;;
8480;SDS011;4277;51.354;6.740;2023-04-03T15:17:54;1.90;;;1.10;;
8480;SDS011;4277;51.354;6.740;2023-04-03T15:20:23;2.70;;;1.17;;
8480;SDS011;4277;51.354;6.740;2023-04-03T15:22:50;2.73;;;1.10;;
8480;SDS011;4277;51.354;6.740;2023-04-03T15:25:16;1.47;;;1.10;;
8480;SDS011;4277;51.354;6.740;2023-04-03T15:27:43;1.60;;;0.90;;
8480;SDS011;4277;51.354;6.740;2023-04-03T15:30:13;4.00;;;0.90;;
8480;SDS011;4277;51.354;6.740;2023-04-03T15:32:39;4.17;;;1.23;;
8480;SDS011;4277;51.354;6.740;2023-04-03T15:35:05;3.13;;;1.40;;
8480;SDS011;4277;51.354;6.740;2023-04-03T15:37:32;1.53;;;1.00;;
8480;SDS011;4277;51.354;6.740;2023-04-03T15:39:58;1.63;;;1.17;;
8480;SDS011;4277;51.354;6.740;2023-04-03T15:42:24;1.93;;;1.27;;
8480;SDS011;4277;51.354;6.740;2023-04-03T15:44:50;2.70;;;1.17;;
8480;SDS011;4277;51.354;6.740;2023-04-03T15:47:16;2.50;;;1.00;;
8480;SDS011;4277;51.354;6.740;2023-04-03T15:49:42;2.03;;;0.90;;
8480;SDS011;4277;51.354;6.740;2023-04-03T15:52:08;3.70;;;1.30;;
8480;SDS011;4277;51.354;6.740;2023-04-03T15:54:34;3.60;;;1.30;;
8480;SDS011;4277;51.354;6.740;2023-04-03T15:57:00;2.50;;;1.00;;
8480;SDS011;4277;51.354;6.740;2023-04-03T15:59:26;2.00;;;1.00;;
8480;SDS011;4277;51.354;6.740;2023-04-03T16:01:53;1.73;;;1.20;;
8480;SDS011;4277;51.354;6.740;2023-04-03T16:04:20;1.77;;;1.10;;
8480;SDS011;4277;51.354;6.740;2023-04-03T16:06:46;2.77;;;1.47;;
8480;SDS011;4277;51.354;6.740;2023-04-03T16:09:12;1.97;;;1.10;;
8480;SDS011;4277;51.354;6.740;2023-04-03T16:11:38;6.67;;;1.57;;
8480;SDS011;4277;51.354;6.740;2023-04-03T16:14:05;1.60;;;1.10;;
8480;SDS011;4277;51.354;6.740;2023-04-03T16:16:31;2.03;;;1.10;;
8480;SDS011;4277;51.354;6.740;2023-04-03T16:18:57;2.57;;;0.93;;
8480;SDS011;4277;51.354;6.740;2023-04-03T16:21:23;1.73;;;1.10;;
8480;SDS011;4277;51.354;6.740;2023-04-03T16:23:49;2.10;;;1.10;;
8480;SDS011;4277;51.354;6.740;2023-04-03T16:26:15;2.10;;;1.20;;
8480;SDS011;4277;51.354;6.740;2023-04-03T16:28:42;1.63;;;1.00;;
8480;SDS011;4277;51.354;6.740;2023-04-03T16:31:08;2.10;;;1.10;;
8480;SDS011;4277;51.354;6.740;2023-04-03T16:33:34;1.60;;;1.20;;
8480;SDS011;4277;51.354;6.740;2023-04-03T16:36:01;2.10;;;1.20;;
8480;SDS011;4277;51.354;6.740;2023-04-03T16:38:28;2.40;;;1.10;;
8480;SDS011;4277;51.354;6.740;2023-04-03T16:40:54;1.73;;;1.00;;